sensor_id;sensor_type;location;lat;lon;timestamp;P1;durP1;ratioP1;P2;durP2;ratioP2
68097;SDS011;54886;47.036;15.466;2024-01-30T00:00:53;24.90;;;12.57;;
68097;SDS011;54886;47.036;15.466;2024-01-30T00:03:19;28.10;;;12.65;;
68097;SDS011;54886;47.036;15.466;2024-01-30T00:05:44;21.83;;;12.73;;
68097;SDS011;54886;47.036;15.466;2024-01-30T00:08:10;23.40;;;11.07;;
68097;SDS011;54886;47.036;15.466;2024-01-30T00:10:35;22.50;;;11.95;;
68097;SDS011;54886;47.036;15.466;2024-01-30T00:13:01;25.05;;;11.93;;
68097;SDS011;54886;47.036;15.466;2024-01-30T00:15:27;26.23;;;12.18;;
68097;SDS011;54886;47.036;15.466;2024-01-30T00:17:53;23.63;;;12.13;;
68097;SDS011;54886;47.036;15.466;2024-01-30T00:20:18;26.67;;;12.48;;
68097;SDS011;54886;47.036;15.466;2024-01-30T00:22:44;24.30;;;11.95;;
68097;SDS011;54886;47.036;15.466;2024-01-30T00:25:09;24.85;;;12.45;;
68097;SDS011;54886;47.036;15.466;2024-01-30T00:27:35;22.73;;;11.82;;
68097;SDS011;54886;47.036;15.466;2024-01-30T00:30:00;20.63;;;11.20;;
68097;SDS011;54886;47.036;15.466;2024-01-30T00:32:26;25.42;;;12.18;;
68097;SDS011;54886;47.036;15.466;2024-01-30T00:34:51;22.77;;;12.13;;
68097;SDS011;54886;47.036;15.466;2024-01-30T00:37:16;20.70;;;12.35;;
68097;SDS011;54886;47.036;15.466;2024-01-30T00:39:42;21.88;;;11.27;;
68097;SDS011;54886;47.036;15.466;2024-01-30T00:42:07;24.30;;;12.50;;
68097;SDS011;54886;47.036;15.466;2024-01-30T00:44:34;22.52;;;12.10;;
68097;SDS011;54886;47.036;15.466;2024-01-30T00:47:02;25.23;;;12.98;;
68097;SDS011;54886;47.036;15.466;2024-01-30T00:49:28;26.17;;;12.63;;
68097;SDS011;54886;47.036;15.466;2024-01-30T00:51:53;25.52;;;12.75;;
68097;SDS011;54886;47.036;15.466;2024-01-30T00:54:18;23.58;;;12.07;;
68097;SDS011;54886;47.036;15.466;2024-01-30T00:56:44;25.52;;;12.77;;
68097;SDS011;54886;47.036;15.466;2024-01-30T00:59:10;25.27;;;12.73;;
68097;SDS011;54886;47.036;15.466;2024-01-30T01:01:36;26.00;;;11.82;;
68097;SDS011;54886;47.036;15.466;2024-01-30T01:04:01;22.70;;;11.60;;
68097;SDS011;54886;47.036;15.466;2024-01-30T01:06:27;22.25;;;11.57;;
68097;SDS011;54886;47.036;15.466;2024-01-30T01:08:52;25.27;;;12.07;;
68097;SDS011;54886;47.036;15.466;2024-01-30T01:11:18;20.88;;;10.98;;
68097;SDS011;54886;47.036;15.466;2024-01-30T01:13:43;22.35;;;11.57;;
68097;SDS011;54886;47.036;15.466;2024-01-30T01:16:08;20.33;;;12.05;;
68097;SDS011;54886;47.036;15.466;2024-01-30T01:18:34;21.75;;;11.63;;
68097;SDS011;54886;47.036;15.466;2024-01-30T01:20:59;23.58;;;12.25;;
68097;SDS011;54886;47.036;15.466;2024-01-30T01:23:25;22.50;;;10.95;;
68097;SDS011;54886;47.036;15.466;2024-01-30T01:25:51;24.65;;;12.60;;
68097;SDS011;54886;47.036;15.466;2024-01-30T01:28:16;25.90;;;11.68;;
68097;SDS011;54886;47.036;15.466;2024-01-30T01:30:41;26.77;;;12.90;;
68097;SDS011;54886;47.036;15.466;2024-01-30T01:33:07;25.35;;;13.68;;
68097;SDS011;54886;47.036;15.466;2024-01-30T01:35:32;27.95;;;12.35;;
68097;SDS011;54886;47.036;15.466;2024-01-30T01:37:58;26.13;;;13.60;;
68097;SDS011;54886;47.036;15.466;2024-01-30T01:40:25;24.17;;;12.38;;
68097;SDS011;54886;47.036;15.466;2024-01-30T01:42:52;23.45;;;11.95;;
68097;SDS011;54886;47.036;15.466;2024-01-30T01:45:18;24.00;;;12.45;;
68097;SDS011;54886;47.036;15.466;2024-01-30T01:47:45;23.52;;;12.85;;
68097;SDS011;54886;47.036;15.466;2024-01-30T01:50:13;22.95;;;12.90;;
68097;SDS011;54886;47.036;15.466;2024-01-30T01:52:43;26.00;;;12.95;;
68097;SDS011;54886;47.036;15.466;2024-01-30T01:55:10;22.92;;;11.45;;
68097;SDS011;54886;47.036;15.466;2024-01-30T01:57:36;23.63;;;13.55;;
68097;SDS011;54886;47.036;15.466;2024-01-30T02:00:01;23.40;;;13.00;;
68097;SDS011;54886;47.036;15.466;2024-01-30T02:02:30;21.63;;;12.23;;
68097;SDS011;54886;47.036;15.466;2024-01-30T02:04:59;23.38;;;11.85;;
68097;SDS011;54886;47.036;15.466;2024-01-30T02:07:25;23.58;;;11.75;;
68097;SDS011;54886;47.036;15.466;2024-01-30T02:09:52;22.90;;;12.05;;
68097;SDS011;54886;47.036;15.466;2024-01-30T02:12:18;22.02;;;11.82;;
68097;SDS011;54886;47.036;15.466;2024-01-30T02:14:44;25.13;;;11.63;;
68097;SDS011;54886;47.036;15.466;2024-01-30T02:17:13;23.58;;;11.63;;
68097;SDS011;54886;47.036;15.466;2024-01-30T02:19:39;21.67;;;12.00;;
68097;SDS011;54886;47.036;15.466;2024-01-30T02:22:04;23.42;;;12.20;;
68097;SDS011;54886;47.036;15.466;2024-01-30T02:24:30;25.83;;;12.30;;
68097;SDS011;54886;47.036;15.466;2024-01-30T02:26:56;22.15;;;11.10;;
68097;SDS011;54886;47.036;15.466;2024-01-30T02:29:21;21.20;;;11.88;;
68097;SDS011;54886;47.036;15.466;2024-01-30T02:31:46;20.83;;;11.95;;
68097;SDS011;54886;47.036;15.466;2024-01-30T02:34:12;22.95;;;12.52;;
68097;SDS011;54886;47.036;15.466;2024-01-30T02:36:38;27.95;;;12.13;;
68097;SDS011;54886;47.036;15.466;2024-01-30T02:39:03;24.17;;;13.05;;
68097;SDS011;54886;47.036;15.466;2024-01-30T02:41:29;23.77;;;12.45;;
68097;SDS011;54886;47.036;15.466;2024-01-30T02:43:54;28.27;;;12.73;;
68097;SDS011;54886;47.036;15.466;2024-01-30T02:46:19;23.45;;;12.55;;
68097;SDS011;54886;47.036;15.466;2024-01-30T02:48:45;24.13;;;11.50;;
68097;SDS011;54886;47.036;15.466;2024-01-30T02:51:10;25.98;;;12.35;;
68097;SDS011;54886;47.036;15.466;2024-01-30T02:53:36;21.83;;;12.65;;
68097;SDS011;54886;47.036;15.466;2024-01-30T02:56:02;24.50;;;11.95;;
68097;SDS011;54886;47.036;15.466;2024-01-30T02:58:28;26.67;;;12.10;;
68097;SDS011;54886;47.036;15.466;2024-01-30T03:00:53;23.98;;;11.55;;
68097;SDS011;54886;47.036;15.466;2024-01-30T03:03:18;23.15;;;12.57;;
68097;SDS011;54886;47.036;15.466;2024-01-30T03:05:44;22.08;;;11.57;;
68097;SDS011;54886;47.036;15.466;2024-01-30T03:08:09;23.60;;;11.85;;
68097;SDS011;54886;47.036;15.466;2024-01-30T03:10:35;25.05;;;11.75;;
68097;SDS011;54886;47.036;15.466;2024-01-30T03:13:00;22.80;;;11.65;;
68097;SDS011;54886;47.036;15.466;2024-01-30T03:15:26;20.45;;;11.65;;
68097;SDS011;54886;47.036;15.466;2024-01-30T03:17:51;24.13;;;12.68;;
68097;SDS011;54886;47.036;15.466;2024-01-30T03:20:18;22.70;;;10.50;;
68097;SDS011;54886;47.036;15.466;2024-01-30T03:22:43;21.67;;;12.13;;
68097;SDS011;54886;47.036;15.466;2024-01-30T03:25:08;25.13;;;10.95;;
68097;SDS011;54886;47.036;15.466;2024-01-30T03:27:34;22.17;;;11.50;;
68097;SDS011;54886;47.036;15.466;2024-01-30T03:29:59;23.30;;;12.48;;
68097;SDS011;54886;47.036;15.466;2024-01-30T03:32:25;19.70;;;11.23;;
68097;SDS011;54886;47.036;15.466;2024-01-30T03:34:50;23.08;;;12.35;;
68097;SDS011;54886;47.036;15.466;2024-01-30T03:37:15;23.75;;;12.65;;
68097;SDS011;54886;47.036;15.466;2024-01-30T03:39:41;23.75;;;12.25;;
68097;SDS011;54886;47.036;15.466;2024-01-30T03:42:06;20.67;;;11.70;;
68097;SDS011;54886;47.036;15.466;2024-01-30T03:44:31;22.63;;;11.85;;
68097;SDS011;54886;47.036;15.466;2024-01-30T03:46:57;24.58;;;12.63;;
68097;SDS011;54886;47.036;15.466;2024-01-30T03:49:22;29.63;;;11.95;;
68097;SDS011;54886;47.036;15.466;2024-01-30T03:51:47;21.17;;;12.10;;
68097;SDS011;54886;47.036;15.466;2024-01-30T03:54:13;28.38;;;11.70;;
68097;SDS011;54886;47.036;15.466;2024-01-30T03:56:38;20.92;;;12.45;;
68097;SDS011;54886;47.036;15.466;2024-01-30T03:59:03;23.05;;;12.65;;
68097;SDS011;54886;47.036;15.466;2024-01-30T04:01:29;26.33;;;12.00;;
68097;SDS011;54886;47.036;15.466;2024-01-30T04:03:54;24.48;;;11.82;;
68097;SDS011;54886;47.036;15.466;2024-01-30T04:06:20;20.70;;;11.48;;
68097;SDS011;54886;47.036;15.466;2024-01-30T04:08:45;20.95;;;12.07;;
68097;SDS011;54886;47.036;15.466;2024-01-30T04:11:10;23.23;;;11.77;;
68097;SDS011;54886;47.036;15.466;2024-01-30T04:13:36;21.83;;;11.40;;
68097;SDS011;54886;47.036;15.466;2024-01-30T04:16:01;21.63;;;11.05;;
68097;SDS011;54886;47.036;15.466;2024-01-30T04:18:27;22.98;;;11.55;;
68097;SDS011;54886;47.036;15.466;2024-01-30T04:20:53;24.80;;;11.68;;
68097;SDS011;54886;47.036;15.466;2024-01-30T04:23:19;18.98;;;11.45;;
68097;SDS011;54886;47.036;15.466;2024-01-30T04:25:44;24.05;;;12.02;;
68097;SDS011;54886;47.036;15.466;2024-01-30T04:28:10;24.52;;;11.73;;
68097;SDS011;54886;47.036;15.466;2024-01-30T04:30:37;23.83;;;12.10;;
68097;SDS011;54886;47.036;15.466;2024-01-30T04:33:03;20.00;;;11.07;;
68097;SDS011;54886;47.036;15.466;2024-01-30T04:35:28;24.42;;;11.27;;
68097;SDS011;54886;47.036;15.466;2024-01-30T04:37:54;23.80;;;11.27;;
68097;SDS011;54886;47.036;15.466;2024-01-30T04:40:20;20.17;;;11.98;;
68097;SDS011;54886;47.036;15.466;2024-01-30T04:42:46;21.63;;;12.23;;
68097;SDS011;54886;47.036;15.466;2024-01-30T04:45:12;22.45;;;12.10;;
68097;SDS011;54886;47.036;15.466;2024-01-30T04:47:38;21.63;;;12.32;;
68097;SDS011;54886;47.036;15.466;2024-01-30T04:50:04;24.27;;;11.77;;
68097;SDS011;54886;47.036;15.466;2024-01-30T04:52:31;19.33;;;10.95;;
68097;SDS011;54886;47.036;15.466;2024-01-30T04:54:57;21.45;;;10.82;;
68097;SDS011;54886;47.036;15.466;2024-01-30T04:57:22;22.70;;;12.02;;
68097;SDS011;54886;47.036;15.466;2024-01-30T04:59:48;23.65;;;12.50;;
68097;SDS011;54886;47.036;15.466;2024-01-30T05:02:13;23.02;;;12.00;;
68097;SDS011;54886;47.036;15.466;2024-01-30T05:04:40;21.40;;;11.57;;
68097;SDS011;54886;47.036;15.466;2024-01-30T05:07:06;22.35;;;12.32;;
68097;SDS011;54886;47.036;15.466;2024-01-30T05:09:31;22.63;;;11.55;;
68097;SDS011;54886;47.036;15.466;2024-01-30T05:11:56;25.45;;;11.82;;
68097;SDS011;54886;47.036;15.466;2024-01-30T05:14:23;22.73;;;12.02;;
68097;SDS011;54886;47.036;15.466;2024-01-30T05:16:48;21.45;;;12.13;;
68097;SDS011;54886;47.036;15.466;2024-01-30T05:19:14;22.13;;;11.30;;
68097;SDS011;54886;47.036;15.466;2024-01-30T05:21:39;23.90;;;12.65;;
68097;SDS011;54886;47.036;15.466;2024-01-30T05:24:05;21.80;;;11.02;;
68097;SDS011;54886;47.036;15.466;2024-01-30T05:26:30;22.70;;;10.95;;
68097;SDS011;54886;47.036;15.466;2024-01-30T05:28:56;22.90;;;11.82;;
68097;SDS011;54886;47.036;15.466;2024-01-30T05:31:22;19.35;;;11.73;;
68097;SDS011;54886;47.036;15.466;2024-01-30T05:33:47;25.27;;;11.35;;
68097;SDS011;54886;47.036;15.466;2024-01-30T05:36:13;22.02;;;11.52;;
68097;SDS011;54886;47.036;15.466;2024-01-30T05:38:38;19.00;;;11.13;;
68097;SDS011;54886;47.036;15.466;2024-01-30T05:41:04;19.42;;;11.00;;
68097;SDS011;54886;47.036;15.466;2024-01-30T05:43:29;20.65;;;10.75;;
68097;SDS011;54886;47.036;15.466;2024-01-30T05:45:54;22.60;;;11.68;;
68097;SDS011;54886;47.036;15.466;2024-01-30T05:48:20;20.23;;;11.27;;
68097;SDS011;54886;47.036;15.466;2024-01-30T05:50:46;24.40;;;10.93;;
68097;SDS011;54886;47.036;15.466;2024-01-30T05:53:11;20.45;;;10.80;;
68097;SDS011;54886;47.036;15.466;2024-01-30T05:55:37;20.13;;;10.30;;
68097;SDS011;54886;47.036;15.466;2024-01-30T05:58:02;23.58;;;12.05;;
68097;SDS011;54886;47.036;15.466;2024-01-30T06:00:28;20.30;;;11.18;;
68097;SDS011;54886;47.036;15.466;2024-01-30T06:02:54;21.67;;;11.15;;
68097;SDS011;54886;47.036;15.466;2024-01-30T06:05:19;19.23;;;10.25;;
68097;SDS011;54886;47.036;15.466;2024-01-30T06:07:45;19.55;;;11.05;;
68097;SDS011;54886;47.036;15.466;2024-01-30T06:10:10;21.55;;;11.73;;
68097;SDS011;54886;47.036;15.466;2024-01-30T06:12:35;20.15;;;11.18;;
68097;SDS011;54886;47.036;15.466;2024-01-30T06:15:01;19.98;;;10.60;;
68097;SDS011;54886;47.036;15.466;2024-01-30T06:17:27;23.67;;;11.75;;
68097;SDS011;54886;47.036;15.466;2024-01-30T06:19:53;22.13;;;11.38;;
68097;SDS011;54886;47.036;15.466;2024-01-30T06:22:18;21.67;;;10.98;;
68097;SDS011;54886;47.036;15.466;2024-01-30T06:24:44;20.42;;;11.60;;
68097;SDS011;54886;47.036;15.466;2024-01-30T06:27:10;18.65;;;11.13;;
68097;SDS011;54886;47.036;15.466;2024-01-30T06:29:36;22.38;;;11.65;;
68097;SDS011;54886;47.036;15.466;2024-01-30T06:32:01;22.65;;;12.35;;
68097;SDS011;54886;47.036;15.466;2024-01-30T06:34:27;22.50;;;12.27;;
68097;SDS011;54886;47.036;15.466;2024-01-30T06:36:52;19.85;;;11.45;;
68097;SDS011;54886;47.036;15.466;2024-01-30T06:39:17;22.35;;;11.50;;
68097;SDS011;54886;47.036;15.466;2024-01-30T06:41:43;20.63;;;11.68;;
68097;SDS011;54886;47.036;15.466;2024-01-30T06:44:08;19.42;;;11.57;;
68097;SDS011;54886;47.036;15.466;2024-01-30T06:46:34;21.83;;;12.25;;
68097;SDS011;54886;47.036;15.466;2024-01-30T06:49:00;24.25;;;12.13;;
68097;SDS011;54886;47.036;15.466;2024-01-30T06:51:26;20.55;;;11.68;;
68097;SDS011;54886;47.036;15.466;2024-01-30T06:53:51;23.38;;;12.68;;
68097;SDS011;54886;47.036;15.466;2024-01-30T06:56:17;18.80;;;10.90;;
68097;SDS011;54886;47.036;15.466;2024-01-30T06:58:46;20.65;;;12.63;;
68097;SDS011;54886;47.036;15.466;2024-01-30T07:01:15;22.70;;;11.48;;
68097;SDS011;54886;47.036;15.466;2024-01-30T07:03:41;25.60;;;12.13;;
68097;SDS011;54886;47.036;15.466;2024-01-30T07:06:07;20.77;;;11.88;;
68097;SDS011;54886;47.036;15.466;2024-01-30T07:08:32;19.98;;;11.93;;
68097;SDS011;54886;47.036;15.466;2024-01-30T07:10:58;20.75;;;11.73;;
68097;SDS011;54886;47.036;15.466;2024-01-30T07:13:24;21.63;;;12.18;;
68097;SDS011;54886;47.036;15.466;2024-01-30T07:15:49;23.60;;;12.65;;
68097;SDS011;54886;47.036;15.466;2024-01-30T07:18:15;23.77;;;13.10;;
68097;SDS011;54886;47.036;15.466;2024-01-30T07:20:40;19.27;;;11.70;;
68097;SDS011;54886;47.036;15.466;2024-01-30T07:23:14;23.42;;;12.82;;
68097;SDS011;54886;47.036;15.466;2024-01-30T07:25:42;23.85;;;13.10;;
68097;SDS011;54886;47.036;15.466;2024-01-30T07:28:08;25.30;;;13.20;;
68097;SDS011;54886;47.036;15.466;2024-01-30T07:30:37;25.58;;;13.23;;
68097;SDS011;54886;47.036;15.466;2024-01-30T07:33:03;28.55;;;15.40;;
68097;SDS011;54886;47.036;15.466;2024-01-30T07:35:29;31.15;;;15.95;;
68097;SDS011;54886;47.036;15.466;2024-01-30T07:37:54;29.27;;;15.43;;
68097;SDS011;54886;47.036;15.466;2024-01-30T07:40:20;31.75;;;14.95;;
68097;SDS011;54886;47.036;15.466;2024-01-30T07:42:45;28.50;;;14.15;;
68097;SDS011;54886;47.036;15.466;2024-01-30T07:45:10;28.45;;;13.63;;
68097;SDS011;54886;47.036;15.466;2024-01-30T07:47:36;27.15;;;14.32;;
68097;SDS011;54886;47.036;15.466;2024-01-30T07:50:01;23.98;;;12.68;;
68097;SDS011;54886;47.036;15.466;2024-01-30T07:52:27;24.90;;;14.40;;
68097;SDS011;54886;47.036;15.466;2024-01-30T07:58:13;27.33;;;13.35;;
68097;SDS011;54886;47.036;15.466;2024-01-30T08:00:39;27.40;;;14.60;;
68097;SDS011;54886;47.036;15.466;2024-01-30T08:03:04;28.80;;;15.25;;
68097;SDS011;54886;47.036;15.466;2024-01-30T08:05:30;25.63;;;15.30;;
68097;SDS011;54886;47.036;15.466;2024-01-30T08:07:55;29.40;;;15.25;;
68097;SDS011;54886;47.036;15.466;2024-01-30T08:10:21;27.52;;;15.35;;
68097;SDS011;54886;47.036;15.466;2024-01-30T08:12:46;30.67;;;15.80;;
68097;SDS011;54886;47.036;15.466;2024-01-30T08:15:12;24.38;;;14.68;;
68097;SDS011;54886;47.036;15.466;2024-01-30T08:17:38;27.50;;;14.85;;
68097;SDS011;54886;47.036;15.466;2024-01-30T08:20:03;30.17;;;15.40;;
68097;SDS011;54886;47.036;15.466;2024-01-30T08:22:29;27.20;;;15.00;;
68097;SDS011;54886;47.036;15.466;2024-01-30T08:24:55;34.63;;;15.48;;
68097;SDS011;54886;47.036;15.466;2024-01-30T08:27:20;26.58;;;15.57;;
68097;SDS011;54886;47.036;15.466;2024-01-30T08:29:46;30.45;;;14.10;;
68097;SDS011;54886;47.036;15.466;2024-01-30T08:32:11;33.22;;;15.48;;
68097;SDS011;54886;47.036;15.466;2024-01-30T08:34:37;29.45;;;15.23;;
68097;SDS011;54886;47.036;15.466;2024-01-30T08:37:02;25.80;;;14.85;;
68097;SDS011;54886;47.036;15.466;2024-01-30T08:39:28;26.25;;;15.13;;
68097;SDS011;54886;47.036;15.466;2024-01-30T08:41:53;30.05;;;16.27;;
68097;SDS011;54886;47.036;15.466;2024-01-30T08:44:19;27.23;;;15.82;;
68097;SDS011;54886;47.036;15.466;2024-01-30T08:46:44;23.35;;;14.82;;
68097;SDS011;54886;47.036;15.466;2024-01-30T08:49:10;26.38;;;14.35;;
68097;SDS011;54886;47.036;15.466;2024-01-30T08:51:38;26.23;;;14.80;;
68097;SDS011;54886;47.036;15.466;2024-01-30T08:54:04;28.05;;;14.73;;
68097;SDS011;54886;47.036;15.466;2024-01-30T08:56:29;26.02;;;14.82;;
68097;SDS011;54886;47.036;15.466;2024-01-30T08:58:54;24.70;;;14.05;;
68097;SDS011;54886;47.036;15.466;2024-01-30T09:01:20;28.98;;;15.43;;
68097;SDS011;54886;47.036;15.466;2024-01-30T09:03:45;25.50;;;13.38;;
68097;SDS011;54886;47.036;15.466;2024-01-30T09:06:12;24.60;;;14.38;;
68097;SDS011;54886;47.036;15.466;2024-01-30T09:08:38;25.00;;;14.98;;
68097;SDS011;54886;47.036;15.466;2024-01-30T09:11:13;24.63;;;14.23;;
68097;SDS011;54886;47.036;15.466;2024-01-30T09:13:39;23.77;;;12.93;;
68097;SDS011;54886;47.036;15.466;2024-01-30T09:16:05;25.42;;;13.73;;
68097;SDS011;54886;47.036;15.466;2024-01-30T09:18:30;24.98;;;13.70;;
68097;SDS011;54886;47.036;15.466;2024-01-30T09:20:56;24.58;;;14.05;;
68097;SDS011;54886;47.036;15.466;2024-01-30T09:23:21;24.58;;;13.40;;
68097;SDS011;54886;47.036;15.466;2024-01-30T09:25:47;23.40;;;13.13;;
68097;SDS011;54886;47.036;15.466;2024-01-30T09:28:13;28.10;;;13.75;;
68097;SDS011;54886;47.036;15.466;2024-01-30T09:30:38;25.48;;;13.32;;
68097;SDS011;54886;47.036;15.466;2024-01-30T09:33:04;30.05;;;12.50;;
68097;SDS011;54886;47.036;15.466;2024-01-30T09:35:29;23.58;;;12.75;;
68097;SDS011;54886;47.036;15.466;2024-01-30T09:37:55;27.70;;;13.88;;
68097;SDS011;54886;47.036;15.466;2024-01-30T09:40:22;23.08;;;12.73;;
68097;SDS011;54886;47.036;15.466;2024-01-30T09:42:47;27.10;;;12.40;;
68097;SDS011;54886;47.036;15.466;2024-01-30T09:45:15;22.92;;;12.20;;
68097;SDS011;54886;47.036;15.466;2024-01-30T09:47:42;22.55;;;12.02;;
68097;SDS011;54886;47.036;15.466;2024-01-30T09:50:09;21.80;;;11.93;;
68097;SDS011;54886;47.036;15.466;2024-01-30T09:52:39;25.52;;;12.27;;
68097;SDS011;54886;47.036;15.466;2024-01-30T09:55:05;21.60;;;12.27;;
68097;SDS011;54886;47.036;15.466;2024-01-30T09:57:31;24.05;;;12.57;;
68097;SDS011;54886;47.036;15.466;2024-01-30T09:59:57;22.65;;;12.18;;
68097;SDS011;54886;47.036;15.466;2024-01-30T10:02:23;25.35;;;11.93;;
68097;SDS011;54886;47.036;15.466;2024-01-30T10:04:49;19.17;;;10.32;;
68097;SDS011;54886;47.036;15.466;2024-01-30T10:07:16;21.35;;;10.93;;
68097;SDS011;54886;47.036;15.466;2024-01-30T10:09:41;23.08;;;10.82;;
68097;SDS011;54886;47.036;15.466;2024-01-30T10:12:07;22.02;;;12.35;;
68097;SDS011;54886;47.036;15.466;2024-01-30T10:14:34;20.67;;;11.38;;
68097;SDS011;54886;47.036;15.466;2024-01-30T10:17:03;19.27;;;10.98;;
68097;SDS011;54886;47.036;15.466;2024-01-30T10:19:28;25.05;;;12.40;;
68097;SDS011;54886;47.036;15.466;2024-01-30T10:21:53;27.85;;;12.15;;
68097;SDS011;54886;47.036;15.466;2024-01-30T10:24:23;21.70;;;10.93;;
68097;SDS011;54886;47.036;15.466;2024-01-30T10:26:49;20.98;;;10.73;;
68097;SDS011;54886;47.036;15.466;2024-01-30T10:29:14;22.35;;;10.38;;
68097;SDS011;54886;47.036;15.466;2024-01-30T10:31:40;19.13;;;10.80;;
68097;SDS011;54886;47.036;15.466;2024-01-30T10:34:05;19.90;;;11.18;;
68097;SDS011;54886;47.036;15.466;2024-01-30T10:36:30;18.98;;;11.20;;
68097;SDS011;54886;47.036;15.466;2024-01-30T10:39:06;23.98;;;10.82;;
68097;SDS011;54886;47.036;15.466;2024-01-30T10:41:33;21.50;;;9.90;;
68097;SDS011;54886;47.036;15.466;2024-01-30T10:44:10;22.13;;;10.55;;
68097;SDS011;54886;47.036;15.466;2024-01-30T10:46:37;21.08;;;10.50;;
68097;SDS011;54886;47.036;15.466;2024-01-30T10:51:29;17.23;;;8.85;;
68097;SDS011;54886;47.036;15.466;2024-01-30T10:53:57;21.23;;;10.23;;
68097;SDS011;54886;47.036;15.466;2024-01-30T10:56:23;20.50;;;10.60;;
68097;SDS011;54886;47.036;15.466;2024-01-30T10:58:52;21.55;;;11.52;;
68097;SDS011;54886;47.036;15.466;2024-01-30T11:01:19;18.58;;;11.32;;
68097;SDS011;54886;47.036;15.466;2024-01-30T11:03:48;18.58;;;10.88;;
68097;SDS011;54886;47.036;15.466;2024-01-30T11:06:15;22.77;;;10.77;;
68097;SDS011;54886;47.036;15.466;2024-01-30T11:08:43;20.98;;;9.68;;
68097;SDS011;54886;47.036;15.466;2024-01-30T11:11:09;17.77;;;9.93;;
68097;SDS011;54886;47.036;15.466;2024-01-30T11:13:35;18.05;;;10.35;;
68097;SDS011;54886;47.036;15.466;2024-01-30T11:16:01;17.00;;;9.40;;
68097;SDS011;54886;47.036;15.466;2024-01-30T11:18:30;18.48;;;10.00;;
68097;SDS011;54886;47.036;15.466;2024-01-30T11:20:57;19.15;;;10.27;;
68097;SDS011;54886;47.036;15.466;2024-01-30T11:23:30;23.23;;;9.77;;
68097;SDS011;54886;47.036;15.466;2024-01-30T11:25:58;16.60;;;9.73;;
68097;SDS011;54886;47.036;15.466;2024-01-30T11:28:23;20.50;;;9.80;;
68097;SDS011;54886;47.036;15.466;2024-01-30T11:30:49;17.73;;;9.48;;
68097;SDS011;54886;47.036;15.466;2024-01-30T11:38:22;19.43;;;10.37;;
68097;SDS011;54886;47.036;15.466;2024-01-30T11:40:47;18.98;;;9.73;;
68097;SDS011;54886;47.036;15.466;2024-01-30T11:43:13;15.52;;;9.00;;
68097;SDS011;54886;47.036;15.466;2024-01-30T11:45:38;18.67;;;9.65;;
68097;SDS011;54886;47.036;15.466;2024-01-30T11:48:04;17.05;;;9.52;;
68097;SDS011;54886;47.036;15.466;2024-01-30T11:50:30;19.95;;;9.27;;
68097;SDS011;54886;47.036;15.466;2024-01-30T11:53:02;18.02;;;9.00;;
68097;SDS011;54886;47.036;15.466;2024-01-30T11:55:29;18.40;;;10.05;;
68097;SDS011;54886;47.036;15.466;2024-01-30T11:57:59;14.82;;;8.85;;
68097;SDS011;54886;47.036;15.466;2024-01-30T12:00:25;15.30;;;8.80;;
68097;SDS011;54886;47.036;15.466;2024-01-30T12:02:51;17.38;;;9.55;;
68097;SDS011;54886;47.036;15.466;2024-01-30T12:05:20;17.33;;;9.52;;
68097;SDS011;54886;47.036;15.466;2024-01-30T12:07:47;16.88;;;8.85;;
68097;SDS011;54886;47.036;15.466;2024-01-30T12:10:13;14.52;;;8.40;;
68097;SDS011;54886;47.036;15.466;2024-01-30T12:12:39;16.50;;;8.65;;
68097;SDS011;54886;47.036;15.466;2024-01-30T12:15:05;15.23;;;8.95;;
68097;SDS011;54886;47.036;15.466;2024-01-30T12:17:32;17.45;;;9.20;;
68097;SDS011;54886;47.036;15.466;2024-01-30T12:20:11;17.33;;;8.98;;
68097;SDS011;54886;47.036;15.466;2024-01-30T12:22:40;17.15;;;8.75;;
68097;SDS011;54886;47.036;15.466;2024-01-30T12:25:20;17.10;;;8.60;;
68097;SDS011;54886;47.036;15.466;2024-01-30T12:27:46;14.48;;;8.73;;
68097;SDS011;54886;47.036;15.466;2024-01-30T12:30:16;14.25;;;8.30;;
68097;SDS011;54886;47.036;15.466;2024-01-30T12:32:42;14.43;;;8.00;;
68097;SDS011;54886;47.036;15.466;2024-01-30T12:35:12;17.03;;;8.23;;
68097;SDS011;54886;47.036;15.466;2024-01-30T12:37:40;13.45;;;8.05;;
68097;SDS011;54886;47.036;15.466;2024-01-30T12:40:07;13.73;;;7.95;;
68097;SDS011;54886;47.036;15.466;2024-01-30T12:42:33;15.95;;;8.43;;
68097;SDS011;54886;47.036;15.466;2024-01-30T12:44:58;19.08;;;8.82;;
68097;SDS011;54886;47.036;15.466;2024-01-30T12:47:24;17.33;;;8.35;;
68097;SDS011;54886;47.036;15.466;2024-01-30T12:49:50;25.70;;;8.52;;
68097;SDS011;54886;47.036;15.466;2024-01-30T12:52:18;16.23;;;8.43;;
68097;SDS011;54886;47.036;15.466;2024-01-30T12:54:44;16.27;;;7.97;;
68097;SDS011;54886;47.036;15.466;2024-01-30T12:57:10;15.15;;;8.00;;
68097;SDS011;54886;47.036;15.466;2024-01-30T12:59:35;16.35;;;8.07;;
68097;SDS011;54886;47.036;15.466;2024-01-30T13:02:01;16.40;;;8.40;;
68097;SDS011;54886;47.036;15.466;2024-01-30T13:04:28;14.02;;;8.45;;
68097;SDS011;54886;47.036;15.466;2024-01-30T13:06:53;15.32;;;8.43;;
68097;SDS011;54886;47.036;15.466;2024-01-30T13:09:19;15.65;;;8.52;;
68097;SDS011;54886;47.036;15.466;2024-01-30T13:11:45;15.55;;;8.85;;
68097;SDS011;54886;47.036;15.466;2024-01-30T13:14:11;14.85;;;8.63;;
68097;SDS011;54886;47.036;15.466;2024-01-30T13:16:36;17.58;;;8.90;;
68097;SDS011;54886;47.036;15.466;2024-01-30T13:19:01;15.60;;;9.00;;
68097;SDS011;54886;47.036;15.466;2024-01-30T13:21:28;14.73;;;8.88;;
68097;SDS011;54886;47.036;15.466;2024-01-30T13:23:53;16.75;;;9.10;;
68097;SDS011;54886;47.036;15.466;2024-01-30T13:26:20;14.88;;;7.97;;
68097;SDS011;54886;47.036;15.466;2024-01-30T13:28:45;17.52;;;8.25;;
68097;SDS011;54886;47.036;15.466;2024-01-30T13:31:11;15.77;;;8.35;;
68097;SDS011;54886;47.036;15.466;2024-01-30T13:33:37;14.25;;;8.52;;
68097;SDS011;54886;47.036;15.466;2024-01-30T13:36:02;16.13;;;8.32;;
68097;SDS011;54886;47.036;15.466;2024-01-30T13:38:28;18.45;;;8.63;;
68097;SDS011;54886;47.036;15.466;2024-01-30T13:40:53;15.52;;;8.68;;
68097;SDS011;54886;47.036;15.466;2024-01-30T13:43:19;15.48;;;8.55;;
68097;SDS011;54886;47.036;15.466;2024-01-30T13:45:44;15.48;;;8.77;;
68097;SDS011;54886;47.036;15.466;2024-01-30T13:48:10;14.98;;;9.05;;
68097;SDS011;54886;47.036;15.466;2024-01-30T13:50:36;17.77;;;9.02;;
68097;SDS011;54886;47.036;15.466;2024-01-30T13:53:02;14.68;;;8.73;;
68097;SDS011;54886;47.036;15.466;2024-01-30T13:55:29;17.00;;;9.10;;
68097;SDS011;54886;47.036;15.466;2024-01-30T13:57:54;15.75;;;8.65;;
68097;SDS011;54886;47.036;15.466;2024-01-30T14:00:21;17.63;;;9.20;;
68097;SDS011;54886;47.036;15.466;2024-01-30T14:02:47;16.90;;;8.63;;
68097;SDS011;54886;47.036;15.466;2024-01-30T14:05:12;14.73;;;8.35;;
68097;SDS011;54886;47.036;15.466;2024-01-30T14:07:39;17.77;;;9.05;;
68097;SDS011;54886;47.036;15.466;2024-01-30T14:10:05;18.42;;;9.68;;
68097;SDS011;54886;47.036;15.466;2024-01-30T14:12:31;16.70;;;9.45;;
68097;SDS011;54886;47.036;15.466;2024-01-30T14:14:56;14.70;;;9.38;;